sensor_id;sensor_type;location;lat;lon;timestamp;P1;durP1;ratioP1;P2;durP2;ratioP2
68700;SDS011;55682;51.114;5.882;2024-03-22T00:01:57;18.23;;;17.94;;
68700;SDS011;55682;51.114;5.882;2024-03-22T00:04:23;18.26;;;17.98;;
68700;SDS011;55682;51.114;5.882;2024-03-22T00:06:49;18.92;;;18.58;;
68700;SDS011;55682;51.114;5.882;2024-03-22T00:09:15;19.90;;;19.30;;
68700;SDS011;55682;51.114;5.882;2024-03-22T00:11:42;19.09;;;18.42;;
68700;SDS011;55682;51.114;5.882;2024-03-22T00:14:09;19.51;;;19.12;;
68700;SDS011;55682;51.114;5.882;2024-03-22T00:16:36;19.25;;;18.86;;
68700;SDS011;55682;51.114;5.882;2024-03-22T00:19:02;17.96;;;17.81;;
68700;SDS011;55682;51.114;5.882;2024-03-22T00:21:28;18.80;;;18.50;;
68700;SDS011;55682;51.114;5.882;2024-03-22T00:23:55;19.01;;;18.69;;
68700;SDS011;55682;51.114;5.882;2024-03-22T00:26:21;20.72;;;20.18;;
68700;SDS011;55682;51.114;5.882;2024-03-22T00:28:47;19.56;;;19.31;;
68700;SDS011;55682;51.114;5.882;2024-03-22T00:31:13;19.16;;;18.94;;
68700;SDS011;55682;51.114;5.882;2024-03-22T00:33:39;19.72;;;19.27;;
68700;SDS011;55682;51.114;5.882;2024-03-22T00:36:04;19.72;;;19.38;;
68700;SDS011;55682;51.114;5.882;2024-03-22T00:38:31;20.46;;;19.99;;
68700;SDS011;55682;51.114;5.882;2024-03-22T00:40:57;20.09;;;19.52;;
68700;SDS011;55682;51.114;5.882;2024-03-22T00:43:23;20.61;;;20.22;;
68700;SDS011;55682;51.114;5.882;2024-03-22T00:45:48;20.08;;;19.45;;
68700;SDS011;55682;51.114;5.882;2024-03-22T00:48:15;19.43;;;19.08;;
68700;SDS011;55682;51.114;5.882;2024-03-22T00:50:41;19.81;;;19.34;;
68700;SDS011;55682;51.114;5.882;2024-03-22T00:53:06;18.98;;;18.55;;
68700;SDS011;55682;51.114;5.882;2024-03-22T00:55:33;19.82;;;19.31;;
68700;SDS011;55682;51.114;5.882;2024-03-22T00:57:59;19.02;;;18.69;;
68700;SDS011;55682;51.114;5.882;2024-03-22T01:00:25;19.84;;;19.51;;
68700;SDS011;55682;51.114;5.882;2024-03-22T01:02:51;18.24;;;18.01;;
68700;SDS011;55682;51.114;5.882;2024-03-22T01:05:17;19.42;;;19.16;;
68700;SDS011;55682;51.114;5.882;2024-03-22T01:07:42;19.40;;;19.06;;
68700;SDS011;55682;51.114;5.882;2024-03-22T01:10:08;19.34;;;19.04;;
68700;SDS011;55682;51.114;5.882;2024-03-22T01:12:34;20.22;;;19.68;;
68700;SDS011;55682;51.114;5.882;2024-03-22T01:15:00;20.72;;;20.16;;
68700;SDS011;55682;51.114;5.882;2024-03-22T01:17:26;19.62;;;19.17;;
68700;SDS011;55682;51.114;5.882;2024-03-22T01:19:51;18.94;;;18.66;;
68700;SDS011;55682;51.114;5.882;2024-03-22T01:22:17;18.16;;;17.98;;
68700;SDS011;55682;51.114;5.882;2024-03-22T01:24:44;18.16;;;17.83;;
68700;SDS011;55682;51.114;5.882;2024-03-22T01:27:10;18.50;;;18.17;;
68700;SDS011;55682;51.114;5.882;2024-03-22T01:29:36;19.83;;;19.60;;
68700;SDS011;55682;51.114;5.882;2024-03-22T01:32:02;18.21;;;17.95;;
68700;SDS011;55682;51.114;5.882;2024-03-22T01:34:28;19.86;;;19.49;;
68700;SDS011;55682;51.114;5.882;2024-03-22T01:36:53;19.19;;;18.79;;
68700;SDS011;55682;51.114;5.882;2024-03-22T01:39:20;19.80;;;19.40;;
68700;SDS011;55682;51.114;5.882;2024-03-22T01:41:49;18.82;;;18.27;;
68700;SDS011;55682;51.114;5.882;2024-03-22T01:44:16;19.54;;;19.13;;
68700;SDS011;55682;51.114;5.882;2024-03-22T01:46:42;19.37;;;19.05;;
68700;SDS011;55682;51.114;5.882;2024-03-22T01:49:09;19.66;;;19.27;;
68700;SDS011;55682;51.114;5.882;2024-03-22T01:51:40;18.36;;;17.97;;
68700;SDS011;55682;51.114;5.882;2024-03-22T01:54:06;17.66;;;17.46;;
68700;SDS011;55682;51.114;5.882;2024-03-22T01:56:36;19.08;;;18.87;;
68700;SDS011;55682;51.114;5.882;2024-03-22T01:59:03;18.21;;;18.10;;
68700;SDS011;55682;51.114;5.882;2024-03-22T02:01:30;18.82;;;18.67;;
68700;SDS011;55682;51.114;5.882;2024-03-22T02:03:56;17.32;;;17.09;;
68700;SDS011;55682;51.114;5.882;2024-03-22T02:06:22;18.82;;;18.43;;
68700;SDS011;55682;51.114;5.882;2024-03-22T02:08:48;19.48;;;19.17;;
68700;SDS011;55682;51.114;5.882;2024-03-22T02:11:13;18.98;;;18.62;;
68700;SDS011;55682;51.114;5.882;2024-03-22T02:13:39;18.12;;;17.85;;
68700;SDS011;55682;51.114;5.882;2024-03-22T02:16:05;17.73;;;17.56;;
68700;SDS011;55682;51.114;5.882;2024-03-22T02:18:31;18.71;;;18.47;;
68700;SDS011;55682;51.114;5.882;2024-03-22T02:20:57;18.29;;;18.16;;
68700;SDS011;55682;51.114;5.882;2024-03-22T02:23:43;19.91;;;19.67;;
68700;SDS011;55682;51.114;5.882;2024-03-22T02:26:08;19.31;;;18.90;;
68700;SDS011;55682;51.114;5.882;2024-03-22T02:28:34;19.98;;;19.59;;
68700;SDS011;55682;51.114;5.882;2024-03-22T02:31:01;18.06;;;17.71;;
68700;SDS011;55682;51.114;5.882;2024-03-22T02:33:28;19.60;;;19.24;;
68700;SDS011;55682;51.114;5.882;2024-03-22T02:35:54;18.68;;;18.36;;
68700;SDS011;55682;51.114;5.882;2024-03-22T02:38:20;17.63;;;17.33;;
68700;SDS011;55682;51.114;5.882;2024-03-22T02:40:46;17.63;;;17.31;;
68700;SDS011;55682;51.114;5.882;2024-03-22T02:43:12;17.63;;;17.49;;
68700;SDS011;55682;51.114;5.882;2024-03-22T02:45:38;19.73;;;19.55;;
68700;SDS011;55682;51.114;5.882;2024-03-22T02:48:04;19.95;;;19.66;;
68700;SDS011;55682;51.114;5.882;2024-03-22T02:50:34;19.43;;;18.91;;
68700;SDS011;55682;51.114;5.882;2024-03-22T02:53:01;18.11;;;17.76;;
68700;SDS011;55682;51.114;5.882;2024-03-22T02:55:27;19.57;;;19.17;;
68700;SDS011;55682;51.114;5.882;2024-03-22T02:57:53;20.12;;;19.93;;
68700;SDS011;55682;51.114;5.882;2024-03-22T03:00:19;19.05;;;18.80;;
68700;SDS011;55682;51.114;5.882;2024-03-22T03:02:45;18.37;;;18.14;;
68700;SDS011;55682;51.114;5.882;2024-03-22T03:05:11;18.25;;;17.90;;
68700;SDS011;55682;51.114;5.882;2024-03-22T03:07:36;18.58;;;18.18;;
68700;SDS011;55682;51.114;5.882;2024-03-22T03:10:02;19.14;;;18.94;;
68700;SDS011;55682;51.114;5.882;2024-03-22T03:12:28;20.93;;;20.31;;
68700;SDS011;55682;51.114;5.882;2024-03-22T03:14:53;20.14;;;19.61;;
68700;SDS011;55682;51.114;5.882;2024-03-22T03:17:19;19.53;;;19.22;;
68700;SDS011;55682;51.114;5.882;2024-03-22T03:19:45;19.26;;;19.00;;
68700;SDS011;55682;51.114;5.882;2024-03-22T03:22:10;18.07;;;17.85;;
68700;SDS011;55682;51.114;5.882;2024-03-22T03:24:36;18.04;;;17.88;;
68700;SDS011;55682;51.114;5.882;2024-03-22T03:27:01;20.52;;;20.35;;
68700;SDS011;55682;51.114;5.882;2024-03-22T03:29:28;18.71;;;18.46;;
68700;SDS011;55682;51.114;5.882;2024-03-22T03:31:53;18.67;;;18.40;;
68700;SDS011;55682;51.114;5.882;2024-03-22T03:34:19;19.34;;;19.20;;
68700;SDS011;55682;51.114;5.882;2024-03-22T03:36:45;19.36;;;19.24;;
68700;SDS011;55682;51.114;5.882;2024-03-22T03:39:11;18.88;;;18.73;;
68700;SDS011;55682;51.114;5.882;2024-03-22T03:41:37;19.70;;;19.54;;
68700;SDS011;55682;51.114;5.882;2024-03-22T03:44:03;19.35;;;19.05;;
68700;SDS011;55682;51.114;5.882;2024-03-22T03:46:28;18.55;;;18.11;;
68700;SDS011;55682;51.114;5.882;2024-03-22T03:48:54;19.20;;;19.03;;
68700;SDS011;55682;51.114;5.882;2024-03-22T03:51:19;20.36;;;20.22;;
68700;SDS011;55682;51.114;5.882;2024-03-22T03:53:45;18.54;;;18.36;;
68700;SDS011;55682;51.114;5.882;2024-03-22T03:56:11;18.01;;;17.76;;
68700;SDS011;55682;51.114;5.882;2024-03-22T03:58:36;18.21;;;18.05;;
68700;SDS011;55682;51.114;5.882;2024-03-22T04:01:06;19.07;;;18.97;;
68700;SDS011;55682;51.114;5.882;2024-03-22T04:03:32;19.95;;;19.80;;
68700;SDS011;55682;51.114;5.882;2024-03-22T04:05:58;18.60;;;18.47;;
68700;SDS011;55682;51.114;5.882;2024-03-22T04:08:27;19.04;;;18.89;;
68700;SDS011;55682;51.114;5.882;2024-03-22T04:10:53;19.27;;;18.93;;
68700;SDS011;55682;51.114;5.882;2024-03-22T04:13:23;18.76;;;18.44;;
68700;SDS011;55682;51.114;5.882;2024-03-22T04:15:50;18.43;;;18.17;;
68700;SDS011;55682;51.114;5.882;2024-03-22T04:18:15;18.53;;;18.37;;
68700;SDS011;55682;51.114;5.882;2024-03-22T04:20:41;18.29;;;18.05;;
68700;SDS011;55682;51.114;5.882;2024-03-22T04:23:09;16.48;;;16.40;;
68700;SDS011;55682;51.114;5.882;2024-03-22T04:25:35;18.60;;;18.56;;
68700;SDS011;55682;51.114;5.882;2024-03-22T04:28:00;18.01;;;17.80;;
68700;SDS011;55682;51.114;5.882;2024-03-22T04:30:26;18.82;;;18.71;;
68700;SDS011;55682;51.114;5.882;2024-03-22T04:32:51;18.47;;;18.31;;
68700;SDS011;55682;51.114;5.882;2024-03-22T04:35:17;19.30;;;19.09;;
68700;SDS011;55682;51.114;5.882;2024-03-22T04:37:43;18.28;;;18.01;;
68700;SDS011;55682;51.114;5.882;2024-03-22T04:40:08;18.13;;;17.84;;
68700;SDS011;55682;51.114;5.882;2024-03-22T04:42:35;17.51;;;17.45;;
68700;SDS011;55682;51.114;5.882;2024-03-22T04:45:01;17.38;;;17.19;;
68700;SDS011;55682;51.114;5.882;2024-03-22T04:47:26;17.84;;;17.73;;
68700;SDS011;55682;51.114;5.882;2024-03-22T04:49:52;19.10;;;19.01;;
68700;SDS011;55682;51.114;5.882;2024-03-22T04:52:17;17.49;;;17.33;;
68700;SDS011;55682;51.114;5.882;2024-03-22T04:54:43;19.23;;;19.07;;
68700;SDS011;55682;51.114;5.882;2024-03-22T04:57:09;19.46;;;19.19;;
68700;SDS011;55682;51.114;5.882;2024-03-22T04:59:34;18.81;;;18.62;;
68700;SDS011;55682;51.114;5.882;2024-03-22T05:05:49;18.61;;;18.45;;
68700;SDS011;55682;51.114;5.882;2024-03-22T05:08:15;16.74;;;16.60;;
68700;SDS011;55682;51.114;5.882;2024-03-22T05:10:41;17.96;;;17.79;;
68700;SDS011;55682;51.114;5.882;2024-03-22T05:13:07;19.49;;;19.20;;
68700;SDS011;55682;51.114;5.882;2024-03-22T05:15:33;17.96;;;17.71;;
68700;SDS011;55682;51.114;5.882;2024-03-22T05:17:59;17.56;;;17.33;;
68700;SDS011;55682;51.114;5.882;2024-03-22T05:20:25;17.78;;;17.55;;
68700;SDS011;55682;51.114;5.882;2024-03-22T05:22:51;18.36;;;18.03;;
68700;SDS011;55682;51.114;5.882;2024-03-22T05:25:18;18.97;;;18.74;;
68700;SDS011;55682;51.114;5.882;2024-03-22T05:27:44;17.12;;;17.07;;
68700;SDS011;55682;51.114;5.882;2024-03-22T05:30:10;17.42;;;17.34;;
68700;SDS011;55682;51.114;5.882;2024-03-22T05:32:37;17.47;;;17.29;;
68700;SDS011;55682;51.114;5.882;2024-03-22T05:35:04;17.69;;;17.37;;
68700;SDS011;55682;51.114;5.882;2024-03-22T05:37:30;17.40;;;17.12;;
68700;SDS011;55682;51.114;5.882;2024-03-22T05:39:55;17.04;;;16.79;;
68700;SDS011;55682;51.114;5.882;2024-03-22T05:42:21;18.34;;;18.17;;
68700;SDS011;55682;51.114;5.882;2024-03-22T05:44:47;17.13;;;16.88;;
68700;SDS011;55682;51.114;5.882;2024-03-22T05:47:13;16.93;;;16.81;;
68700;SDS011;55682;51.114;5.882;2024-03-22T05:49:39;17.30;;;17.24;;
68700;SDS011;55682;51.114;5.882;2024-03-22T05:52:04;16.35;;;16.30;;
68700;SDS011;55682;51.114;5.882;2024-03-22T05:54:30;16.31;;;16.19;;
68700;SDS011;55682;51.114;5.882;2024-03-22T05:56:56;16.24;;;16.18;;
68700;SDS011;55682;51.114;5.882;2024-03-22T05:59:22;17.55;;;17.23;;
68700;SDS011;55682;51.114;5.882;2024-03-22T06:01:47;17.02;;;16.97;;
68700;SDS011;55682;51.114;5.882;2024-03-22T06:04:13;16.36;;;16.27;;
68700;SDS011;55682;51.114;5.882;2024-03-22T06:06:38;16.65;;;16.50;;
68700;SDS011;55682;51.114;5.882;2024-03-22T06:09:04;15.88;;;15.79;;
68700;SDS011;55682;51.114;5.882;2024-03-22T06:11:36;16.57;;;16.26;;
68700;SDS011;55682;51.114;5.882;2024-03-22T06:14:02;15.95;;;15.69;;
68700;SDS011;55682;51.114;5.882;2024-03-22T06:16:28;15.58;;;15.42;;
68700;SDS011;55682;51.114;5.882;2024-03-22T06:18:53;15.62;;;15.47;;
68700;SDS011;55682;51.114;5.882;2024-03-22T06:21:19;16.09;;;15.92;;
68700;SDS011;55682;51.114;5.882;2024-03-22T06:23:50;16.59;;;16.22;;
68700;SDS011;55682;51.114;5.882;2024-03-22T06:26:16;15.58;;;15.41;;
68700;SDS011;55682;51.114;5.882;2024-03-22T06:28:42;15.60;;;15.48;;
68700;SDS011;55682;51.114;5.882;2024-03-22T06:31:08;15.06;;;14.98;;
68700;SDS011;55682;51.114;5.882;2024-03-22T06:33:34;14.63;;;14.60;;
68700;SDS011;55682;51.114;5.882;2024-03-22T06:36:00;15.13;;;14.94;;
68700;SDS011;55682;51.114;5.882;2024-03-22T06:38:26;14.92;;;14.70;;
68700;SDS011;55682;51.114;5.882;2024-03-22T06:40:51;14.95;;;14.84;;
68700;SDS011;55682;51.114;5.882;2024-03-22T06:43:17;14.76;;;14.58;;
68700;SDS011;55682;51.114;5.882;2024-03-22T06:45:43;15.47;;;15.19;;
68700;SDS011;55682;51.114;5.882;2024-03-22T06:48:08;15.90;;;15.76;;
68700;SDS011;55682;51.114;5.882;2024-03-22T06:50:34;15.83;;;15.66;;
68700;SDS011;55682;51.114;5.882;2024-03-22T06:53:00;16.32;;;16.09;;
68700;SDS011;55682;51.114;5.882;2024-03-22T06:55:25;15.96;;;15.77;;
68700;SDS011;55682;51.114;5.882;2024-03-22T06:57:51;17.23;;;17.09;;
68700;SDS011;55682;51.114;5.882;2024-03-22T07:00:17;16.44;;;16.33;;
68700;SDS011;55682;51.114;5.882;2024-03-22T07:02:43;16.98;;;16.83;;
68700;SDS011;55682;51.114;5.882;2024-03-22T07:05:10;16.36;;;16.23;;
68700;SDS011;55682;51.114;5.882;2024-03-22T07:07:36;16.17;;;16.08;;
68700;SDS011;55682;51.114;5.882;2024-03-22T07:10:02;16.67;;;16.56;;
68700;SDS011;55682;51.114;5.882;2024-03-22T07:12:31;15.90;;;15.82;;
68700;SDS011;55682;51.114;5.882;2024-03-22T07:14:57;16.88;;;16.69;;
68700;SDS011;55682;51.114;5.882;2024-03-22T07:17:24;17.12;;;16.89;;
68700;SDS011;55682;51.114;5.882;2024-03-22T07:19:50;18.05;;;17.91;;
68700;SDS011;55682;51.114;5.882;2024-03-22T07:22:17;16.32;;;16.19;;
68700;SDS011;55682;51.114;5.882;2024-03-22T07:24:43;17.40;;;17.25;;
68700;SDS011;55682;51.114;5.882;2024-03-22T07:27:08;16.56;;;16.42;;
68700;SDS011;55682;51.114;5.882;2024-03-22T07:29:34;16.15;;;16.07;;
68700;SDS011;55682;51.114;5.882;2024-03-22T07:32:00;16.37;;;16.18;;
68700;SDS011;55682;51.114;5.882;2024-03-22T07:34:26;16.33;;;16.19;;
68700;SDS011;55682;51.114;5.882;2024-03-22T07:36:51;16.39;;;16.23;;
68700;SDS011;55682;51.114;5.882;2024-03-22T07:39:17;16.31;;;16.07;;
68700;SDS011;55682;51.114;5.882;2024-03-22T07:41:43;15.53;;;15.38;;
68700;SDS011;55682;51.114;5.882;2024-03-22T07:44:09;15.10;;;15.06;;
68700;SDS011;55682;51.114;5.882;2024-03-22T07:46:34;15.96;;;15.82;;
68700;SDS011;55682;51.114;5.882;2024-03-22T07:49:00;15.36;;;15.30;;
68700;SDS011;55682;51.114;5.882;2024-03-22T07:51:25;14.53;;;14.37;;
68700;SDS011;55682;51.114;5.882;2024-03-22T07:53:51;14.24;;;14.08;;
68700;SDS011;55682;51.114;5.882;2024-03-22T07:56:17;14.82;;;14.64;;
68700;SDS011;55682;51.114;5.882;2024-03-22T07:58:43;13.74;;;13.61;;
68700;SDS011;55682;51.114;5.882;2024-03-22T08:01:08;13.00;;;12.92;;
68700;SDS011;55682;51.114;5.882;2024-03-22T08:03:34;12.85;;;12.82;;
68700;SDS011;55682;51.114;5.882;2024-03-22T08:06:00;12.25;;;12.19;;
68700;SDS011;55682;51.114;5.882;2024-03-22T08:08:25;12.35;;;12.17;;
68700;SDS011;55682;51.114;5.882;2024-03-22T08:10:51;12.09;;;11.80;;
68700;SDS011;55682;51.114;5.882;2024-03-22T08:13:17;11.79;;;11.65;;
68700;SDS011;55682;51.114;5.882;2024-03-22T08:15:42;11.96;;;11.93;;
68700;SDS011;55682;51.114;5.882;2024-03-22T08:18:10;11.53;;;11.41;;
68700;SDS011;55682;51.114;5.882;2024-03-22T08:20:36;11.38;;;11.29;;
68700;SDS011;55682;51.114;5.882;2024-03-22T08:23:04;11.51;;;11.50;;
68700;SDS011;55682;51.114;5.882;2024-03-22T08:25:30;11.36;;;11.32;;
68700;SDS011;55682;51.114;5.882;2024-03-22T08:27:56;10.94;;;10.87;;
68700;SDS011;55682;51.114;5.882;2024-03-22T08:30:23;10.63;;;10.57;;
68700;SDS011;55682;51.114;5.882;2024-03-22T08:32:49;10.90;;;10.83;;
68700;SDS011;55682;51.114;5.882;2024-03-22T08:35:14;10.08;;;10.06;;
68700;SDS011;55682;51.114;5.882;2024-03-22T08:37:41;9.99;;;9.87;;
68700;SDS011;55682;51.114;5.882;2024-03-22T08:40:07;9.93;;;9.87;;
68700;SDS011;55682;51.114;5.882;2024-03-22T08:42:33;9.88;;;9.81;;
68700;SDS011;55682;51.114;5.882;2024-03-22T08:44:58;10.96;;;10.86;;
68700;SDS011;55682;51.114;5.882;2024-03-22T08:47:24;10.27;;;10.19;;
68700;SDS011;55682;51.114;5.882;2024-03-22T08:49:50;10.18;;;10.14;;
68700;SDS011;55682;51.114;5.882;2024-03-22T08:52:16;10.10;;;10.01;;
68700;SDS011;55682;51.114;5.882;2024-03-22T08:54:42;9.43;;;9.42;;
68700;SDS011;55682;51.114;5.882;2024-03-22T08:57:07;9.72;;;9.67;;
68700;SDS011;55682;51.114;5.882;2024-03-22T08:59:33;9.44;;;9.42;;
68700;SDS011;55682;51.114;5.882;2024-03-22T09:02:00;9.09;;;9.03;;
68700;SDS011;55682;51.114;5.882;2024-03-22T09:04:26;9.30;;;9.27;;
68700;SDS011;55682;51.114;5.882;2024-03-22T09:06:51;9.36;;;9.31;;
68700;SDS011;55682;51.114;5.882;2024-03-22T09:09:17;9.58;;;9.47;;
68700;SDS011;55682;51.114;5.882;2024-03-22T09:11:46;8.81;;;8.80;;
68700;SDS011;55682;51.114;5.882;2024-03-22T09:14:12;9.14;;;9.07;;
68700;SDS011;55682;51.114;5.882;2024-03-22T09:16:37;9.81;;;9.73;;
68700;SDS011;55682;51.114;5.882;2024-03-22T09:19:03;9.36;;;9.33;;
68700;SDS011;55682;51.114;5.882;2024-03-22T09:21:29;10.44;;;10.40;;
68700;SDS011;55682;51.114;5.882;2024-03-22T09:23:56;11.01;;;10.90;;
68700;SDS011;55682;51.114;5.882;2024-03-22T09:26:22;10.05;;;9.90;;
68700;SDS011;55682;51.114;5.882;2024-03-22T09:28:48;10.01;;;9.91;;
68700;SDS011;55682;51.114;5.882;2024-03-22T09:31:15;9.74;;;9.60;;
68700;SDS011;55682;51.114;5.882;2024-03-22T09:33:42;9.83;;;9.81;;
68700;SDS011;55682;51.114;5.882;2024-03-22T09:36:08;9.47;;;9.45;;
68700;SDS011;55682;51.114;5.882;2024-03-22T09:38:34;9.53;;;9.50;;
68700;SDS011;55682;51.114;5.882;2024-03-22T09:41:00;9.76;;;9.75;;
68700;SDS011;55682;51.114;5.882;2024-03-22T09:43:26;10.03;;;9.94;;
68700;SDS011;55682;51.114;5.882;2024-03-22T09:45:53;10.27;;;10.24;;
68700;SDS011;55682;51.114;5.882;2024-03-22T09:48:20;9.89;;;9.88;;
68700;SDS011;55682;51.114;5.882;2024-03-22T09:50:48;9.70;;;9.69;;
68700;SDS011;55682;51.114;5.882;2024-03-22T09:53:17;9.48;;;9.42;;
68700;SDS011;55682;51.114;5.882;2024-03-22T09:55:44;9.85;;;9.78;;
68700;SDS011;55682;51.114;5.882;2024-03-22T09:58:12;9.34;;;9.31;;
68700;SDS011;55682;51.114;5.882;2024-03-22T10:00:40;10.08;;;10.05;;
68700;SDS011;55682;51.114;5.882;2024-03-22T10:03:05;9.42;;;9.42;;
68700;SDS011;55682;51.114;5.882;2024-03-22T10:05:33;8.94;;;8.94;;
68700;SDS011;55682;51.114;5.882;2024-03-22T10:07:59;9.86;;;9.85;;
68700;SDS011;55682;51.114;5.882;2024-03-22T10:10:25;9.47;;;9.46;;
68700;SDS011;55682;51.114;5.882;2024-03-22T10:12:51;9.86;;;9.85;;
68700;SDS011;55682;51.114;5.882;2024-03-22T10:15:18;9.61;;;9.56;;
68700;SDS011;55682;51.114;5.882;2024-03-22T10:17:44;10.08;;;10.03;;
68700;SDS011;55682;51.114;5.882;2024-03-22T10:20:12;10.20;;;10.10;;
68700;SDS011;55682;51.114;5.882;2024-03-22T10:22:42;10.46;;;10.32;;
68700;SDS011;55682;51.114;5.882;2024-03-22T10:25:09;11.26;;;11.11;;
68700;SDS011;55682;51.114;5.882;2024-03-22T10:27:37;10.42;;;10.38;;
68700;SDS011;55682;51.114;5.882;2024-03-22T10:30:06;10.07;;;10.06;;
68700;SDS011;55682;51.114;5.882;2024-03-22T10:32:37;10.08;;;10.07;;
68700;SDS011;55682;51.114;5.882;2024-03-22T10:35:03;8.79;;;8.79;;
68700;SDS011;55682;51.114;5.882;2024-03-22T10:37:31;9.73;;;9.73;;
68700;SDS011;55682;51.114;5.882;2024-03-22T10:40:02;8.67;;;8.67;;
68700;SDS011;55682;51.114;5.882;2024-03-22T10:42:34;7.09;;;7.08;;
68700;SDS011;55682;51.114;5.882;2024-03-22T10:45:12;7.51;;;7.37;;
68700;SDS011;55682;51.114;5.882;2024-03-22T10:47:38;7.94;;;7.86;;
68700;SDS011;55682;51.114;5.882;2024-03-22T10:50:05;7.11;;;7.10;;
68700;SDS011;55682;51.114;5.882;2024-03-22T10:52:37;7.08;;;7.08;;
68700;SDS011;55682;51.114;5.882;2024-03-22T10:55:15;6.67;;;6.66;;
68700;SDS011;55682;51.114;5.882;2024-03-22T10:57:50;7.25;;;7.20;;
68700;SDS011;55682;51.114;5.882;2024-03-22T11:00:16;7.51;;;7.44;;
68700;SDS011;55682;51.114;5.882;2024-03-22T11:02:53;7.71;;;7.65;;
68700;SDS011;55682;51.114;5.882;2024-03-22T11:05:20;7.21;;;7.20;;
68700;SDS011;55682;51.114;5.882;2024-03-22T11:07:45;6.85;;;6.85;;
68700;SDS011;55682;51.114;5.882;2024-03-22T11:10:11;6.81;;;6.81;;
68700;SDS011;55682;51.114;5.882;2024-03-22T11:12:38;6.86;;;6.83;;
68700;SDS011;55682;51.114;5.882;2024-03-22T11:15:04;7.29;;;7.19;;
68700;SDS011;55682;51.114;5.882;2024-03-22T11:17:30;7.06;;;7.01;;
68700;SDS011;55682;51.114;5.882;2024-03-22T11:19:56;6.68;;;6.66;;
68700;SDS011;55682;51.114;5.882;2024-03-22T11:22:24;7.50;;;7.46;;
68700;SDS011;55682;51.114;5.882;2024-03-22T11:24:51;8.88;;;8.76;;
68700;SDS011;55682;51.114;5.882;2024-03-22T11:27:17;8.26;;;8.25;;
68700;SDS011;55682;51.114;5.882;2024-03-22T11:29:44;8.47;;;8.46;;
68700;SDS011;55682;51.114;5.882;2024-03-22T11:32:13;8.92;;;8.88;;
68700;SDS011;55682;51.114;5.882;2024-03-22T11:34:39;7.93;;;7.80;;
68700;SDS011;55682;51.114;5.882;2024-03-22T11:37:07;9.27;;;9.15;;
68700;SDS011;55682;51.114;5.882;2024-03-22T11:39:38;9.04;;;8.97;;
68700;SDS011;55682;51.114;5.882;2024-03-22T11:42:04;9.34;;;9.27;;
68700;SDS011;55682;51.114;5.882;2024-03-22T11:44:33;9.17;;;9.09;;
68700;SDS011;55682;51.114;5.882;2024-03-22T11:47:02;8.41;;;8.35;;
68700;SDS011;55682;51.114;5.882;2024-03-22T11:49:29;8.45;;;8.35;;
68700;SDS011;55682;51.114;5.882;2024-03-22T11:51:58;7.23;;;7.16;;
68700;SDS011;55682;51.114;5.882;2024-03-22T11:54:23;8.16;;;8.15;;
68700;SDS011;55682;51.114;5.882;2024-03-22T11:56:51;8.85;;;8.79;;
68700;SDS011;55682;51.114;5.882;2024-03-22T11:59:20;8.80;;;8.77;;
68700;SDS011;55682;51.114;5.882;2024-03-22T12:01:46;9.01;;;8.82;;
68700;SDS011;55682;51.114;5.882;2024-03-22T12:04:12;8.27;;;8.16;;
68700;SDS011;55682;51.114;5.882;2024-03-22T12:06:46;8.72;;;8.70;;
68700;SDS011;55682;51.114;5.882;2024-03-22T12:09:12;8.85;;;8.85;;
68700;SDS011;55682;51.114;5.882;2024-03-22T12:11:39;8.86;;;8.77;;
68700;SDS011;55682;51.114;5.882;2024-03-22T12:14:05;9.20;;;9.12;;
68700;SDS011;55682;51.114;5.882;2024-03-22T12:16:31;8.86;;;8.82;;
68700;SDS011;55682;51.114;5.882;2024-03-22T12:18:57;9.02;;;8.93;;
68700;SDS011;55682;51.114;5.882;2024-03-22T12:21:23;8.77;;;8.72;;
68700;SDS011;55682;51.114;5.882;2024-03-22T12:23:50;8.29;;;8.16;;
68700;SDS011;55682;51.114;5.882;2024-03-22T12:26:15;8.28;;;8.17;;
68700;SDS011;55682;51.114;5.882;2024-03-22T12:28:43;8.36;;;8.24;;
68700;SDS011;55682;51.114;5.882;2024-03-22T12:31:08;8.15;;;8.09;;
68700;SDS011;55682;51.114;5.882;2024-03-22T12:33:36;8.66;;;8.55;;
68700;SDS011;55682;51.114;5.882;2024-03-22T12:36:02;8.42;;;8.28;;
68700;SDS011;55682;51.114;5.882;2024-03-22T12:38:29;8.38;;;8.29;;
68700;SDS011;55682;51.114;5.882;2024-03-22T12:40:54;8.23;;;8.16;;
68700;SDS011;55682;51.114;5.882;2024-03-22T12:43:20;8.83;;;8.83;;
68700;SDS011;55682;51.114;5.882;2024-03-22T12:45:46;8.52;;;8.51;;
68700;SDS011;55682;51.114;5.882;2024-03-22T12:48:12;8.71;;;8.63;;
68700;SDS011;55682;51.114;5.882;2024-03-22T12:50:37;9.12;;;8.98;;
68700;SDS011;55682;51.114;5.882;2024-03-22T12:53:04;8.93;;;8.81;;
68700;SDS011;55682;51.114;5.882;2024-03-22T12:55:30;8.74;;;8.61;;
68700;SDS011;55682;51.114;5.882;2024-03-22T12:57:56;8.33;;;8.25;;
68700;SDS011;55682;51.114;5.882;2024-03-22T13:00:25;8.65;;;8.60;;
68700;SDS011;55682;51.114;5.882;2024-03-22T13:02:50;8.95;;;8.86;;
68700;SDS011;55682;51.114;5.882;2024-03-22T13:05:17;8.61;;;8.58;;
68700;SDS011;55682;51.114;5.882;2024-03-22T13:07:43;8.63;;;8.59;;
68700;SDS011;55682;51.114;5.882;2024-03-22T13:10:09;8.72;;;8.64;;
68700;SDS011;55682;51.114;5.882;2024-03-22T13:12:35;9.26;;;9.16;;
68700;SDS011;55682;51.114;5.882;2024-03-22T13:15:01;9.34;;;9.26;;
68700;SDS011;55682;51.114;5.882;2024-03-22T13:17:27;9.64;;;9.63;;
68700;SDS011;55682;51.114;5.882;2024-03-22T13:19:52;8.96;;;8.96;;
68700;SDS011;55682;51.114;5.882;2024-03-22T13:22:18;9.19;;;9.19;;
68700;SDS011;55682;51.114;5.882;2024-03-22T13:24:47;9.34;;;9.29;;
68700;SDS011;55682;51.114;5.882;2024-03-22T13:27:15;9.68;;;9.61;;
68700;SDS011;55682;51.114;5.882;2024-03-22T13:29:41;10.01;;;9.84;;
68700;SDS011;55682;51.114;5.882;2024-03-22T13:32:08;10.36;;;10.33;;
68700;SDS011;55682;51.114;5.882;2024-03-22T13:34:34;10.16;;;10.08;;
68700;SDS011;55682;51.114;5.882;2024-03-22T13:37:00;10.57;;;10.48;;
68700;SDS011;55682;51.114;5.882;2024-03-22T13:39:26;10.01;;;9.97;;
68700;SDS011;55682;51.114;5.882;2024-03-22T13:41:54;9.93;;;9.91;;
68700;SDS011;55682;51.114;5.882;2024-03-22T13:44:23;10.42;;;10.40;;
68700;SDS011;55682;51.114;5.882;2024-03-22T13:46:50;10.63;;;10.59;;
68700;SDS011;55682;51.114;5.882;2024-03-22T13:49:16;10.61;;;10.61;;
68700;SDS011;55682;51.114;5.882;2024-03-22T13:51:46;11.23;;;11.23;;
68700;SDS011;55682;51.114;5.882;2024-03-22T13:54:13;10.89;;;10.85;;
68700;SDS011;55682;51.114;5.882;2024-03-22T13:56:39;11.50;;;11.33;;
68700;SDS011;55682;51.114;5.882;2024-03-22T13:59:05;11.44;;;11.26;;
68700;SDS011;55682;51.114;5.882;2024-03-22T14:01:34;10.98;;;10.95;;
68700;SDS011;55682;51.114;5.882;2024-03-22T14:04:01;11.80;;;11.74;;
68700;SDS011;55682;51.114;5.882;2024-03-22T14:06:30;11.39;;;11.29;;
68700;SDS011;55682;51.114;5.882;2024-03-22T14:08:56;11.80;;;11.70;;
68700;SDS011;55682;51.114;5.882;2024-03-22T14:11:26;11.59;;;11.55;;
68700;SDS011;55682;51.114;5.882;2024-03-22T14:13:52;12.17;;;12.00;;
68700;SDS011;55682;51.114;5.882;2024-03-22T14:16:18;12.40;;;12.24;;
68700;SDS011;55682;51.114;5.882;2024-03-22T14:18:44;12.29;;;12.29;;
68700;SDS011;55682;51.114;5.882;2024-03-22T14:21:09;12.67;;;12.51;;
68700;SDS011;55682;51.114;5.882;2024-03-22T14:23:36;12.11;;;12.10;;
68700;SDS011;55682;51.114;5.882;2024-03-22T14:26:02;11.76;;;11.74;;
68700;SDS011;55682;51.114;5.882;2024-03-22T14:28:28;12.58;;;12.49;;